Keysville, Georgia
Current Conditions -  °F | °C
As of 2:53 PM on Sunday 21 Dec 2014 (Local Time) from KAGS Reporting Station
Overcast Overcast  
Wind Chill: 13°   Ceiling: 5000
Heat Index: 13°   Visibility: 10mi
Dew Point:   Wind: 9mph
Humidity: 57%   Direction: 90°E
Pressure: 30.14"   Gusts: NA
Location:  33.23°N, 82.23°W
Report Text: KAGS 211953Z 09008KT 10SM FEW034 OVC050 13/05 A3014 RMK AO2 SLP204 T01330050
Loading
Personal Weather Stations






























Interactive Weather Map New forecast layout! Learn more

10-Day Weather Forecast

Advertisements
Track Severe Weather on mobile